Time;durP1;ratioP1;P1;durP2;ratioP2;P2;SDS_P1;SDS_P2;PMS_P1;PMS_P2;Temp;Humidity;BMP_temperature;BMP_pressure;BME280_temperature;BME280_humidity;BME280_pressure;Samples;Min_cycle;Max_cycle;Signal;HPM_P1;HPM_P2
2023/06/09 00:04:08;;;;;;;7.40;6.60;;;;;;;16.09;64.77;99388.66;436703;1250;139961;-66
2023/06/09 00:14:14;;;;;;;8.80;6.70;;;;;;;16.05;65.70;99394.70;436290;1251;140133;-68
2023/06/09 00:24:23;;;;;;;7.40;6.70;;;;;;;16.05;66.27;99399.23;436368;1251;139821;-68
2023/06/09 00:34:28;;;;;;;9.20;7.70;;;;;;;16.01;66.53;99403.33;437510;1251;139475;-67
2023/06/09 00:44:34;;;;;;;10.00;5.90;;;;;;;15.91;67.00;99404.61;436875;1251;139372;-67
2023/06/09 00:54:41;;;;;;;9.40;6.50;;;;;;;15.87;67.69;99400.85;436606;1253;141561;-68
2023/06/09 01:04:50;;;;;;;9.20;6.90;;;;;;;15.86;68.31;99394.94;436458;1253;139563;-68
2023/06/09 01:15:04;;;;;;;8.90;7.50;;;;;;;15.82;68.70;99389.61;436361;1251;140172;-68
2023/06/09 01:25:26;;;;;;;7.90;7.10;;;;;;;15.83;69.33;99384.23;436740;1253;140730;-68
2023/06/09 01:35:33;;;;;;;7.40;6.80;;;;;;;15.77;69.74;99375.37;436646;1252;139379;-67
2023/06/09 01:45:39;;;;;;;7.20;6.30;;;;;;;15.78;70.36;99372.48;436701;1251;139286;-67
2023/06/09 01:55:50;;;;;;;8.90;8.00;;;;;;;15.72;70.62;99373.55;436566;1253;139664;-66
2023/06/09 02:05:58;;;;;;;7.30;6.70;;;;;;;15.69;71.03;99369.36;436472;1251;139913;-67
2023/06/09 02:16:04;;;;;;;8.50;6.50;;;;;;;15.71;71.53;99361.00;436620;1251;140201;-67
2023/06/09 02:26:10;;;;;;;7.10;6.40;;;;;;;15.74;71.79;99360.15;436650;1253;139534;-67
2023/06/09 02:36:16;;;;;;;7.20;6.70;;;;;;;15.74;71.73;99362.83;436981;1252;139545;-68
2023/06/09 02:46:23;;;;;;;8.50;7.70;;;;;;;15.75;71.78;99371.69;436824;1251;139544;-67
2023/06/09 02:56:29;;;;;;;8.50;7.60;;;;;;;15.95;71.96;99373.84;436638;1251;141980;-67
2023/06/09 03:06:36;;;;;;;8.10;7.30;;;;;;;17.18;71.21;99370.35;436597;1251;139944;-68
2023/06/09 03:16:42;;;;;;;8.10;6.70;;;;;;;19.65;67.34;99374.06;436537;1251;139058;-68
2023/06/09 03:26:48;;;;;;;7.10;6.40;;;;;;;20.37;63.58;99376.98;436330;1253;139715;-69
2023/06/09 03:36:54;;;;;;;5.60;5.10;;;;;;;20.71;61.40;99377.88;436375;1251;140584;-67
2023/06/09 03:47:00;;;;;;;6.10;5.60;;;;;;;20.17;60.98;99394.30;436382;1251;139422;-67
2023/06/09 03:57:06;;;;;;;5.80;5.10;;;;;;;20.86;61.51;99396.85;436473;1253;139167;-68
2023/06/09 04:07:14;;;;;;;5.50;4.40;;;;;;;26.65;55.14;99392.27;438084;1251;139363;-68
2023/06/09 04:17:22;;;;;;;4.70;4.00;;;;;;;31.42;46.24;99395.50;436700;1251;139746;-68
2023/06/09 04:27:28;;;;;;;7.20;4.00;;;;;;;35.08;39.86;99389.45;436580;1251;139142;-67
2023/06/09 04:37:36;;;;;;;3.80;3.50;;;;;;;37.77;34.53;99388.71;436446;1253;140068;-67
2023/06/09 04:47:41;;;;;;;4.10;3.60;;;;;;;39.57;30.61;99390.37;436889;1253;138348;-67
2023/06/09 04:57:48;;;;;;;3.40;2.90;;;;;;;40.53;28.26;99386.52;436711;1251;138975;-66
2023/06/09 05:07:54;;;;;;;3.10;2.90;;;;;;;42.17;26.07;99383.41;436966;1253;139321;-66
2023/06/09 05:18:00;;;;;;;3.50;3.20;;;;;;;43.87;23.99;99381.80;436564;1251;138686;-66
2023/06/09 05:28:06;;;;;;;3.80;3.30;;;;;;;45.02;22.27;99387.57;436562;1251;138401;-68
2023/06/09 05:38:12;;;;;;;4.50;3.80;;;;;;;45.73;21.07;99391.37;437593;1251;139499;-67
2023/06/09 05:48:18;;;;;;;3.70;2.80;;;;;;;45.57;20.15;99391.87;437109;1251;138435;-74
2023/06/09 05:58:24;;;;;;;2.30;2.10;;;;;;;46.08;19.83;99391.91;439285;1253;138544;-74
2023/06/09 06:08:30;;;;;;;5.40;3.20;;;;;;;46.79;19.00;99387.40;439112;1251;138901;-74
2023/06/09 06:18:36;;;;;;;2.70;2.50;;;;;;;47.60;18.06;99380.80;439024;1253;138912;-73
2023/06/09 06:28:42;;;;;;;4.50;2.70;;;;;;;48.08;17.43;99381.03;439021;1253;138454;-73
2023/06/09 06:38:48;;;;;;;2.70;2.50;;;;;;;49.23;16.83;99385.73;439031;1251;138364;-72
2023/06/09 06:48:54;;;;;;;6.80;2.80;;;;;;;50.47;16.02;99389.55;438830;1253;139050;-72
2023/06/09 06:59:00;;;;;;;4.20;3.70;;;;;;;51.50;15.08;99392.30;439188;1251;138688;-73
2023/06/09 07:09:06;;;;;;;3.70;3.50;;;;;;;50.19;15.18;99393.88;438886;1251;138844;-72
2023/06/09 07:19:12;;;;;;;4.00;3.80;;;;;;;50.23;14.85;99396.23;438866;1252;165800;-71
2023/06/09 07:29:18;;;;;;;5.20;4.80;;;;;;;50.88;14.48;99393.04;439240;1251;139754;-72
2023/06/09 07:39:23;;;;;;;4.40;4.20;;;;;;;50.32;14.44;99388.11;439167;1251;138908;-73
2023/06/09 07:49:29;;;;;;;2.90;2.50;;;;;;;46.30;15.91;99380.26;439393;1251;138532;-73
2023/06/09 07:59:35;;;;;;;9.20;2.90;;;;;;;40.24;19.04;99382.61;439115;1251;138368;-73
2023/06/09 08:09:41;;;;;;;2.50;2.30;;;;;;;34.79;23.17;99384.10;439067;1253;138437;-73
2023/06/09 08:19:47;;;;;;;4.60;2.10;;;;;;;32.82;25.81;99386.29;438857;1253;139415;-73
2023/06/09 08:29:53;;;;;;;2.90;2.40;;;;;;;32.39;27.05;99382.71;438841;1253;138692;-73
2023/06/09 08:40:00;;;;;;;3.90;2.60;;;;;;;31.53;28.33;99380.64;439092;1253;138813;-72
2023/06/09 08:50:10;;;;;;;3.30;3.00;;;;;;;30.65;29.84;99379.20;438974;1253;138546;-73
2023/06/09 09:00:18;;;;;;;5.40;3.10;;;;;;;30.32;30.97;99377.52;439438;1253;138407;-73
2023/06/09 09:10:24;;;;;;;3.50;2.30;;;;;;;29.77;31.49;99380.23;439313;1253;138193;-73
2023/06/09 09:20:37;;;;;;;3.40;2.40;;;;;;;29.16;32.19;99378.60;439307;1253;139356;-72
2023/06/09 09:30:50;;;;;;;3.70;2.70;;;;;;;28.90;32.80;99374.24;439273;1254;139310;-71
2023/06/09 09:40:58;;;;;;;3.90;2.80;;;;;;;28.89;32.95;99361.59;439459;1251;139362;-71
2023/06/09 09:51:04;;;;;;;4.50;2.80;;;;;;;28.75;33.37;99357.86;438941;1256;139711;-72
2023/06/09 10:01:12;;;;;;;2.90;2.40;;;;;;;28.88;33.64;99352.92;439667;1253;138283;-71
2023/06/09 10:11:18;;;;;;;3.00;2.70;;;;;;;28.89;33.53;99346.22;441232;1253;138327;-72
2023/06/09 10:21:26;;;;;;;3.00;2.40;;;;;;;28.40;34.08;99339.55;438996;1254;138243;-71
2023/06/09 10:31:34;;;;;;;4.50;2.30;;;;;;;28.25;34.05;99331.38;438825;1253;139279;-71
2023/06/09 10:41:48;;;;;;;5.70;2.30;;;;;;;28.39;34.01;99318.92;438929;1251;138375;-73
2023/06/09 10:51:54;;;;;;;5.40;2.70;;;;;;;28.02;34.08;99310.10;438980;1253;138388;-72
2023/06/09 11:02:22;;;;;;;2.90;2.70;;;;;;;27.97;34.18;99305.02;438865;1253;138465;-72
2023/06/09 11:12:44;;;;;;;3.00;2.70;;;;;;;27.80;34.61;99302.33;439488;1250;138747;-72
2023/06/09 11:23:06;;;;;;;3.00;2.50;;;;;;;27.52;35.70;99305.95;439274;1253;138810;-72
2023/06/09 11:33:12;;;;;;;8.40;3.00;;;;;;;27.31;36.27;99290.52;439187;1251;139740;-75
2023/06/09 11:43:19;;;;;;;8.50;4.60;;;;;;;27.11;36.72;99282.65;439100;1251;138862;-73
2023/06/09 11:53:26;;;;;;;5.20;3.00;;;;;;;27.21;37.07;99274.42;439130;1251;140023;-73
2023/06/09 12:03:36;;;;;;;4.30;3.90;;;;;;;27.66;36.91;99270.35;439021;1254;140092;-73
2023/06/09 12:13:50;;;;;;;3.40;2.90;;;;;;;28.22;36.34;99262.02;439294;1251;138580;-72
2023/06/09 12:23:56;;;;;;;3.40;3.00;;;;;;;28.12;35.53;99253.09;439098;1253;138731;-71
2023/06/09 12:34:02;;;;;;;4.40;3.40;;;;;;;27.98;36.05;99249.36;438958;1251;138708;-70
2023/06/09 12:44:08;;;;;;;4.60;3.40;;;;;;;27.92;36.48;99245.34;439229;1252;139124;-72
2023/06/09 12:54:15;;;;;;;4.60;3.10;;;;;;;28.07;36.29;99243.31;439223;1253;138734;-72
2023/06/09 13:04:21;;;;;;;3.70;3.30;;;;;;;28.12;36.36;99245.63;439054;1251;138283;-72
2023/06/09 13:14:27;;;;;;;3.70;3.30;;;;;;;27.95;36.39;99241.28;439039;1251;138518;-73
2023/06/09 13:24:33;;;;;;;5.00;4.50;;;;;;;27.56;36.96;99229.89;438939;1251;140570;-71
2023/06/09 13:34:39;;;;;;;7.90;4.90;;;;;;;26.98;39.85;99235.44;438981;1251;138337;-72
2023/06/09 13:44:45;;;;;;;5.00;4.10;;;;;;;26.27;41.07;99229.55;438960;1251;139185;-72
2023/06/09 13:54:51;;;;;;;5.90;3.50;;;;;;;25.96;41.54;99223.77;438955;1254;139014;-72
2023/06/09 14:04:59;;;;;;;4.70;4.30;;;;;;;25.79;41.50;99225.83;438909;1253;138672;-72
2023/06/09 14:15:12;;;;;;;5.70;4.50;;;;;;;26.00;41.55;99238.64;439116;1250;138907;-71
2023/06/09 14:25:21;;;;;;;6.20;4.30;;;;;;;25.89;42.08;99243.48;438952;1250;139056;-72
2023/06/09 14:35:28;;;;;;;5.60;4.70;;;;;;;25.21;42.93;99250.23;439463;1250;138697;-72
2023/06/09 14:45:34;;;;;;;4.80;4.20;;;;;;;24.52;44.11;99277.64;438913;1250;138505;-73
2023/06/09 14:55:42;;;;;;;7.60;4.80;;;;;;;24.19;45.57;99275.91;439145;1250;139780;-71
2023/06/09 15:05:48;;;;;;;4.50;3.90;;;;;;;23.98;46.23;99258.98;438991;1250;138436;-71
2023/06/09 15:15:54;;;;;;;7.10;4.40;;;;;;;23.95;46.13;99244.64;438999;1251;138595;-71
2023/06/09 15:26:00;;;;;;;6.90;3.70;;;;;;;24.06;45.54;99240.33;438945;1251;139421;-72
2023/06/09 15:36:07;;;;;;;4.10;3.20;;;;;;;24.17;45.40;99233.52;438930;1253;138599;-71
2023/06/09 15:46:13;;;;;;;3.90;3.50;;;;;;;24.14;44.67;99228.41;439311;1250;139278;-71
2023/06/09 15:56:19;;;;;;;4.30;3.80;;;;;;;23.93;44.03;99236.00;439269;1251;138850;-71
2023/06/09 16:06:26;;;;;;;5.80;2.80;;;;;;;23.91;43.64;99241.77;439261;1253;138379;-72
2023/06/09 16:16:33;;;;;;;6.50;4.00;;;;;;;23.87;43.51;99254.27;439039;1253;139269;-73
2023/06/09 16:26:39;;;;;;;5.30;4.00;;;;;;;23.77;44.14;99266.81;438960;1250;138449;-72
2023/06/09 16:36:46;;;;;;;5.10;4.70;;;;;;;23.60;45.18;99273.37;438928;1251;138835;-74
2023/06/09 16:46:51;;;;;;;7.80;4.80;;;;;;;23.36;46.21;99279.05;439056;1251;138217;-71
2023/06/09 16:56:57;;;;;;;7.10;3.70;;;;;;;23.12;47.08;99277.48;438859;1250;138599;-71
2023/06/09 17:07:05;;;;;;;5.90;4.70;;;;;;;22.99;47.71;99265.23;438859;1250;138789;-72
2023/06/09 17:17:11;;;;;;;8.00;5.30;;;;;;;22.82;48.43;99258.98;438913;1251;139789;-73
2023/06/09 17:27:17;;;;;;;8.60;4.60;;;;;;;22.66;49.26;99256.47;438913;1250;139143;-72
2023/06/09 17:37:26;;;;;;;5.90;4.90;;;;;;;22.52;50.19;99266.89;438776;1251;139753;-72
2023/06/09 17:47:32;;;;;;;5.50;4.30;;;;;;;22.40;50.89;99267.89;439252;1253;138234;-72
2023/06/09 17:57:37;;;;;;;6.60;3.90;;;;;;;22.51;50.66;99268.14;439097;1251;138610;-72
2023/06/09 18:07:44;;;;;;;4.20;3.80;;;;;;;22.34;50.38;99271.31;438996;1250;138409;-73
2023/06/09 18:17:50;;;;;;;4.80;3.40;;;;;;;22.06;50.30;99268.73;438719;1251;139856;-73
2023/06/09 18:27:56;;;;;;;4.90;4.50;;;;;;;21.89;49.91;99272.99;439082;1251;138419;-71
2023/06/09 18:38:06;;;;;;;4.20;3.10;;;;;;;21.80;49.02;99283.08;439247;1253;138739;-73
2023/06/09 18:48:12;;;;;;;4.20;3.80;;;;;;;21.73;48.60;99286.78;439025;1253;138986;-72
2023/06/09 18:58:22;;;;;;;5.50;4.00;;;;;;;21.61;48.21;99291.65;439167;1250;138316;-71
2023/06/09 19:08:28;;;;;;;4.00;3.70;;;;;;;21.45;48.20;99305.04;438971;1253;138458;-74
2023/06/09 19:18:34;;;;;;;5.60;3.40;;;;;;;21.30;47.94;99317.96;438701;1253;221686;-71
2023/06/09 19:28:40;;;;;;;4.30;3.90;;;;;;;21.19;48.18;99328.67;439755;1251;139003;-72
2023/06/09 19:38:45;;;;;;;4.10;3.60;;;;;;;21.08;48.58;99331.48;438905;1250;140400;-71
2023/06/09 19:48:51;;;;;;;5.70;3.80;;;;;;;20.99;48.88;99335.67;438849;1253;138479;-73
2023/06/09 19:58:57;;;;;;;5.00;4.40;;;;;;;20.90;49.40;99328.50;438947;1250;138751;-71
2023/06/09 20:09:03;;;;;;;8.20;5.40;;;;;;;20.81;49.69;99323.11;438869;1250;140009;-73
2023/06/09 20:19:10;;;;;;;5.40;3.70;;;;;;;20.75;49.80;99329.61;439200;1251;138892;-72
2023/06/09 20:29:16;;;;;;;4.60;4.10;;;;;;;20.70;49.69;99338.29;439154;1250;138269;-72
2023/06/09 20:39:22;;;;;;;6.80;4.50;;;;;;;20.67;49.62;99337.43;439046;1251;138374;-72
2023/06/09 20:49:28;;;;;;;7.10;4.10;;;;;;;20.62;49.85;99337.75;439412;1250;138322;-72
2023/06/09 20:59:34;;;;;;;4.60;3.80;;;;;;;20.56;50.29;99337.33;439150;1250;140521;-72
2023/06/09 21:09:40;;;;;;;4.60;4.20;;;;;;;20.51;50.86;99340.96;438880;1253;141090;-74
2023/06/09 21:19:46;;;;;;;5.00;4.00;;;;;;;20.46;51.32;99348.84;438571;1254;139741;-73
2023/06/09 21:29:52;;;;;;;5.30;3.90;;;;;;;20.43;51.74;99347.68;438460;1251;140675;-74
2023/06/09 21:39:58;;;;;;;6.50;4.30;;;;;;;20.41;52.03;99350.88;438574;1254;138349;-72
2023/06/09 21:50:05;;;;;;;6.20;4.60;;;;;;;20.39;52.35;99352.58;438518;1251;139819;-73
2023/06/09 22:00:13;;;;;;;6.10;5.40;;;;;;;20.35;52.86;99352.12;438573;1254;139677;-72
2023/06/09 22:10:20;;;;;;;8.70;4.70;;;;;;;20.31;53.12;99351.99;439138;1250;138164;-73
2023/06/09 22:20:27;;;;;;;9.10;5.30;;;;;;;20.30;53.72;99348.49;438970;1253;138660;-73
2023/06/09 22:30:33;;;;;;;4.80;4.40;;;;;;;20.27;54.19;99353.63;438890;1251;138371;-72
2023/06/09 22:40:39;;;;;;;5.20;4.60;;;;;;;20.23;54.21;99351.05;438978;1253;139812;-72
2023/06/09 22:50:47;;;;;;;5.10;4.70;;;;;;;20.18;54.69;99351.27;438842;1251;138224;-72
2023/06/09 23:00:53;;;;;;;5.30;4.80;;;;;;;20.12;54.91;99344.60;439044;1253;138703;-73
2023/06/09 23:10:59;;;;;;;6.00;5.30;;;;;;;20.08;55.17;99343.20;438991;1251;139129;-73
2023/06/09 23:21:05;;;;;;;6.50;5.70;;;;;;;20.03;55.61;99345.44;438788;1251;139441;-72
2023/06/09 23:31:11;;;;;;;6.80;6.20;;;;;;;19.92;56.16;99340.52;438827;1251;138914;-72
2023/06/09 23:41:17;;;;;;;6.60;6.10;;;;;;;19.82;56.59;99337.06;439101;1250;138955;-72
2023/06/09 23:51:22;;;;;;;7.80;5.70;;;;;;;19.79;56.73;99338.71;438868;1253;138818;-73
